sensor_id;sensor_type;location;lat;lon;timestamp;P1;durP1;ratioP1;P2;durP2;ratioP2
30036;SDS011;36325;51.512;-0.382;2022-07-23T00:00:23;6.95;;;4.07;;
30036;SDS011;36325;51.512;-0.382;2022-07-23T00:02:50;14.13;;;3.88;;
30036;SDS011;36325;51.512;-0.382;2022-07-23T00:05:18;6.95;;;3.70;;
30036;SDS011;36325;51.512;-0.382;2022-07-23T00:07:45;11.32;;;5.03;;
30036;SDS011;36325;51.512;-0.382;2022-07-23T00:10:12;8.07;;;3.83;;
30036;SDS011;36325;51.512;-0.382;2022-07-23T00:12:40;11.90;;;4.18;;
30036;SDS011;36325;51.512;-0.382;2022-07-23T00:15:17;10.05;;;3.90;;
30036;SDS011;36325;51.512;-0.382;2022-07-23T00:17:45;6.22;;;3.47;;
30036;SDS011;36325;51.512;-0.382;2022-07-23T00:20:13;11.63;;;3.65;;
30036;SDS011;36325;51.512;-0.382;2022-07-23T00:22:48;11.05;;;4.35;;
30036;SDS011;36325;51.512;-0.382;2022-07-23T00:25:16;13.40;;;3.88;;
30036;SDS011;36325;51.512;-0.382;2022-07-23T00:27:54;8.38;;;3.13;;
30036;SDS011;36325;51.512;-0.382;2022-07-23T00:30:22;9.82;;;3.47;;
30036;SDS011;36325;51.512;-0.382;2022-07-23T00:32:53;12.73;;;4.07;;
30036;SDS011;36325;51.512;-0.382;2022-07-23T00:35:24;9.95;;;4.28;;
30036;SDS011;36325;51.512;-0.382;2022-07-23T00:37:53;12.75;;;4.40;;
30036;SDS011;36325;51.512;-0.382;2022-07-23T00:40:21;7.22;;;3.60;;
30036;SDS011;36325;51.512;-0.382;2022-07-23T00:42:49;13.55;;;4.50;;
30036;SDS011;36325;51.512;-0.382;2022-07-23T00:45:16;7.45;;;3.47;;
30036;SDS011;36325;51.512;-0.382;2022-07-23T00:47:44;9.40;;;3.90;;
30036;SDS011;36325;51.512;-0.382;2022-07-23T00:50:12;8.63;;;3.70;;
30036;SDS011;36325;51.512;-0.382;2022-07-23T00:52:40;11.23;;;4.30;;
30036;SDS011;36325;51.512;-0.382;2022-07-23T00:55:09;9.63;;;3.63;;
30036;SDS011;36325;51.512;-0.382;2022-07-23T00:57:37;6.13;;;3.65;;
30036;SDS011;36325;51.512;-0.382;2022-07-23T01:00:07;11.95;;;4.05;;
30036;SDS011;36325;51.512;-0.382;2022-07-23T01:02:41;7.90;;;3.25;;
30036;SDS011;36325;51.512;-0.382;2022-07-23T01:05:15;16.02;;;4.45;;
30036;SDS011;36325;51.512;-0.382;2022-07-23T01:07:44;10.68;;;3.90;;
30036;SDS011;36325;51.512;-0.382;2022-07-23T01:10:13;10.10;;;4.72;;
30036;SDS011;36325;51.512;-0.382;2022-07-23T01:15:29;11.80;;;3.92;;
30036;SDS011;36325;51.512;-0.382;2022-07-23T01:17:57;12.35;;;5.05;;
30036;SDS011;36325;51.512;-0.382;2022-07-23T01:20:25;8.45;;;4.47;;
30036;SDS011;36325;51.512;-0.382;2022-07-23T01:22:53;7.40;;;3.88;;
30036;SDS011;36325;51.512;-0.382;2022-07-23T01:25:21;9.85;;;4.00;;
30036;SDS011;36325;51.512;-0.382;2022-07-23T01:27:58;12.77;;;3.92;;
30036;SDS011;36325;51.512;-0.382;2022-07-23T01:30:25;9.73;;;3.90;;
30036;SDS011;36325;51.512;-0.382;2022-07-23T01:32:53;13.48;;;4.40;;
30036;SDS011;36325;51.512;-0.382;2022-07-23T01:35:21;11.00;;;4.22;;
30036;SDS011;36325;51.512;-0.382;2022-07-23T01:37:50;13.20;;;4.50;;
30036;SDS011;36325;51.512;-0.382;2022-07-23T01:40:19;9.38;;;4.85;;
30036;SDS011;36325;51.512;-0.382;2022-07-23T01:42:46;11.30;;;4.43;;
30036;SDS011;36325;51.512;-0.382;2022-07-23T01:45:15;15.60;;;4.22;;
30036;SDS011;36325;51.512;-0.382;2022-07-23T01:47:47;11.48;;;4.63;;
30036;SDS011;36325;51.512;-0.382;2022-07-23T01:50:15;16.30;;;4.13;;
30036;SDS011;36325;51.512;-0.382;2022-07-23T01:52:58;10.23;;;3.55;;
30036;SDS011;36325;51.512;-0.382;2022-07-23T01:55:25;11.57;;;4.32;;
30036;SDS011;36325;51.512;-0.382;2022-07-23T01:57:53;8.90;;;4.43;;
30036;SDS011;36325;51.512;-0.382;2022-07-23T02:00:26;8.02;;;3.88;;
30036;SDS011;36325;51.512;-0.382;2022-07-23T02:02:53;12.00;;;4.60;;
30036;SDS011;36325;51.512;-0.382;2022-07-23T02:05:21;9.27;;;4.63;;
30036;SDS011;36325;51.512;-0.382;2022-07-23T02:07:48;10.27;;;4.63;;
30036;SDS011;36325;51.512;-0.382;2022-07-23T02:10:15;11.77;;;4.65;;
30036;SDS011;36325;51.512;-0.382;2022-07-23T02:12:43;11.70;;;4.93;;
30036;SDS011;36325;51.512;-0.382;2022-07-23T02:15:10;12.18;;;5.05;;
30036;SDS011;36325;51.512;-0.382;2022-07-23T02:17:38;8.00;;;4.63;;
30036;SDS011;36325;51.512;-0.382;2022-07-23T02:20:06;10.15;;;5.15;;
30036;SDS011;36325;51.512;-0.382;2022-07-23T02:22:34;12.40;;;5.07;;
30036;SDS011;36325;51.512;-0.382;2022-07-23T02:25:03;13.40;;;4.43;;
30036;SDS011;36325;51.512;-0.382;2022-07-23T02:27:31;11.07;;;5.38;;
30036;SDS011;36325;51.512;-0.382;2022-07-23T02:29:58;10.90;;;4.57;;
30036;SDS011;36325;51.512;-0.382;2022-07-23T02:32:26;13.38;;;6.25;;
30036;SDS011;36325;51.512;-0.382;2022-07-23T02:34:53;7.82;;;4.53;;
30036;SDS011;36325;51.512;-0.382;2022-07-23T02:37:20;9.80;;;4.85;;
30036;SDS011;36325;51.512;-0.382;2022-07-23T02:39:47;13.82;;;4.93;;
30036;SDS011;36325;51.512;-0.382;2022-07-23T02:42:15;10.20;;;4.80;;
30036;SDS011;36325;51.512;-0.382;2022-07-23T02:44:43;11.68;;;4.57;;
30036;SDS011;36325;51.512;-0.382;2022-07-23T02:47:10;12.68;;;4.68;;
30036;SDS011;36325;51.512;-0.382;2022-07-23T02:49:37;10.63;;;4.43;;
30036;SDS011;36325;51.512;-0.382;2022-07-23T02:52:06;10.05;;;4.30;;
30036;SDS011;36325;51.512;-0.382;2022-07-23T02:54:34;6.95;;;3.80;;
30036;SDS011;36325;51.512;-0.382;2022-07-23T02:57:02;10.02;;;4.25;;
30036;SDS011;36325;51.512;-0.382;2022-07-23T02:59:30;12.85;;;4.95;;
30036;SDS011;36325;51.512;-0.382;2022-07-23T03:01:57;12.75;;;4.85;;
30036;SDS011;36325;51.512;-0.382;2022-07-23T03:04:26;9.15;;;5.50;;
30036;SDS011;36325;51.512;-0.382;2022-07-23T03:06:55;10.38;;;3.97;;
30036;SDS011;36325;51.512;-0.382;2022-07-23T03:09:23;9.50;;;4.93;;
30036;SDS011;36325;51.512;-0.382;2022-07-23T03:11:51;12.25;;;4.50;;
30036;SDS011;36325;51.512;-0.382;2022-07-23T03:14:19;7.03;;;4.47;;
30036;SDS011;36325;51.512;-0.382;2022-07-23T03:16:46;12.40;;;4.68;;
30036;SDS011;36325;51.512;-0.382;2022-07-23T03:19:13;5.97;;;4.30;;
30036;SDS011;36325;51.512;-0.382;2022-07-23T03:21:41;19.02;;;5.05;;
30036;SDS011;36325;51.512;-0.382;2022-07-23T03:24:08;11.63;;;4.43;;
30036;SDS011;36325;51.512;-0.382;2022-07-23T03:26:36;10.13;;;4.90;;
30036;SDS011;36325;51.512;-0.382;2022-07-23T03:29:04;10.57;;;4.85;;
30036;SDS011;36325;51.512;-0.382;2022-07-23T03:31:31;10.88;;;4.93;;
30036;SDS011;36325;51.512;-0.382;2022-07-23T03:33:58;9.15;;;4.65;;
30036;SDS011;36325;51.512;-0.382;2022-07-23T03:36:26;14.25;;;5.93;;
30036;SDS011;36325;51.512;-0.382;2022-07-23T03:38:54;15.40;;;5.95;;
30036;SDS011;36325;51.512;-0.382;2022-07-23T03:41:22;12.80;;;5.88;;
30036;SDS011;36325;51.512;-0.382;2022-07-23T03:43:49;7.47;;;4.72;;
30036;SDS011;36325;51.512;-0.382;2022-07-23T03:46:16;13.10;;;5.45;;
30036;SDS011;36325;51.512;-0.382;2022-07-23T03:48:43;10.88;;;4.85;;
30036;SDS011;36325;51.512;-0.382;2022-07-23T03:51:13;13.20;;;6.00;;
30036;SDS011;36325;51.512;-0.382;2022-07-23T03:53:40;24.17;;;5.90;;
30036;SDS011;36325;51.512;-0.382;2022-07-23T03:56:07;15.95;;;6.53;;
30036;SDS011;36325;51.512;-0.382;2022-07-23T03:58:34;11.90;;;5.85;;
30036;SDS011;36325;51.512;-0.382;2022-07-23T04:01:01;14.25;;;5.68;;
30036;SDS011;36325;51.512;-0.382;2022-07-23T04:03:29;14.88;;;5.97;;
30036;SDS011;36325;51.512;-0.382;2022-07-23T04:05:56;10.43;;;6.10;;
30036;SDS011;36325;51.512;-0.382;2022-07-23T04:08:24;10.48;;;6.15;;
30036;SDS011;36325;51.512;-0.382;2022-07-23T04:10:52;13.63;;;6.38;;
30036;SDS011;36325;51.512;-0.382;2022-07-23T04:13:21;18.73;;;5.75;;
30036;SDS011;36325;51.512;-0.382;2022-07-23T04:15:48;13.18;;;6.35;;
30036;SDS011;36325;51.512;-0.382;2022-07-23T04:18:17;11.55;;;6.47;;
30036;SDS011;36325;51.512;-0.382;2022-07-23T04:20:53;15.88;;;5.80;;
30036;SDS011;36325;51.512;-0.382;2022-07-23T04:23:21;24.75;;;7.55;;
30036;SDS011;36325;51.512;-0.382;2022-07-23T04:25:48;14.25;;;6.95;;
30036;SDS011;36325;51.512;-0.382;2022-07-23T04:28:16;15.38;;;7.15;;
30036;SDS011;36325;51.512;-0.382;2022-07-23T04:30:43;13.13;;;6.72;;
30036;SDS011;36325;51.512;-0.382;2022-07-23T04:33:12;11.13;;;7.07;;
30036;SDS011;36325;51.512;-0.382;2022-07-23T04:35:40;17.65;;;6.47;;
30036;SDS011;36325;51.512;-0.382;2022-07-23T04:38:13;11.07;;;6.68;;
30036;SDS011;36325;51.512;-0.382;2022-07-23T04:40:42;11.38;;;6.35;;
30036;SDS011;36325;51.512;-0.382;2022-07-23T04:43:10;19.30;;;7.25;;
30036;SDS011;36325;51.512;-0.382;2022-07-23T04:45:45;14.77;;;7.30;;
30036;SDS011;36325;51.512;-0.382;2022-07-23T04:48:12;22.10;;;7.03;;
30036;SDS011;36325;51.512;-0.382;2022-07-23T04:50:40;13.18;;;6.65;;
30036;SDS011;36325;51.512;-0.382;2022-07-23T04:53:21;14.13;;;7.37;;
30036;SDS011;36325;51.512;-0.382;2022-07-23T04:55:51;15.57;;;7.78;;
30036;SDS011;36325;51.512;-0.382;2022-07-23T04:58:19;16.25;;;7.63;;
30036;SDS011;36325;51.512;-0.382;2022-07-23T05:00:47;13.82;;;7.25;;
30036;SDS011;36325;51.512;-0.382;2022-07-23T05:03:16;21.17;;;8.48;;
30036;SDS011;36325;51.512;-0.382;2022-07-23T05:05:45;12.65;;;7.03;;
30036;SDS011;36325;51.512;-0.382;2022-07-23T05:08:15;15.20;;;7.72;;
30036;SDS011;36325;51.512;-0.382;2022-07-23T05:10:48;18.67;;;7.97;;
30036;SDS011;36325;51.512;-0.382;2022-07-23T05:13:16;16.65;;;8.13;;
30036;SDS011;36325;51.512;-0.382;2022-07-23T05:15:45;14.65;;;7.82;;
30036;SDS011;36325;51.512;-0.382;2022-07-23T05:18:12;19.92;;;8.65;;
30036;SDS011;36325;51.512;-0.382;2022-07-23T05:20:40;15.18;;;8.30;;
30036;SDS011;36325;51.512;-0.382;2022-07-23T05:23:11;16.17;;;8.30;;
30036;SDS011;36325;51.512;-0.382;2022-07-23T05:25:39;17.92;;;7.85;;
30036;SDS011;36325;51.512;-0.382;2022-07-23T05:28:07;17.63;;;8.88;;
30036;SDS011;36325;51.512;-0.382;2022-07-23T05:30:35;16.85;;;8.15;;
30036;SDS011;36325;51.512;-0.382;2022-07-23T05:33:05;13.05;;;7.70;;
30036;SDS011;36325;51.512;-0.382;2022-07-23T05:35:34;15.70;;;8.40;;
30036;SDS011;36325;51.512;-0.382;2022-07-23T05:38:27;18.60;;;8.85;;
30036;SDS011;36325;51.512;-0.382;2022-07-23T05:40:57;21.38;;;9.20;;
30036;SDS011;36325;51.512;-0.382;2022-07-23T05:43:25;20.42;;;8.40;;
30036;SDS011;36325;51.512;-0.382;2022-07-23T05:45:53;15.63;;;9.00;;
30036;SDS011;36325;51.512;-0.382;2022-07-23T05:48:21;12.90;;;7.78;;
30036;SDS011;36325;51.512;-0.382;2022-07-23T05:51:00;20.92;;;9.40;;
30036;SDS011;36325;51.512;-0.382;2022-07-23T05:53:31;18.98;;;9.40;;
30036;SDS011;36325;51.512;-0.382;2022-07-23T05:56:17;21.38;;;9.80;;
30036;SDS011;36325;51.512;-0.382;2022-07-23T05:58:45;31.13;;;11.23;;
30036;SDS011;36325;51.512;-0.382;2022-07-23T06:01:15;24.25;;;8.27;;
30036;SDS011;36325;51.512;-0.382;2022-07-23T06:04:06;14.93;;;8.40;;
30036;SDS011;36325;51.512;-0.382;2022-07-23T06:06:37;22.20;;;7.78;;
30036;SDS011;36325;51.512;-0.382;2022-07-23T06:09:06;18.00;;;7.78;;
30036;SDS011;36325;51.512;-0.382;2022-07-23T06:11:34;19.15;;;7.65;;
30036;SDS011;36325;51.512;-0.382;2022-07-23T06:14:01;19.98;;;8.15;;
30036;SDS011;36325;51.512;-0.382;2022-07-23T06:16:48;29.70;;;7.93;;
30036;SDS011;36325;51.512;-0.382;2022-07-23T06:19:15;18.20;;;7.50;;
30036;SDS011;36325;51.512;-0.382;2022-07-23T06:21:43;18.92;;;7.80;;
30036;SDS011;36325;51.512;-0.382;2022-07-23T06:24:13;21.08;;;8.15;;
30036;SDS011;36325;51.512;-0.382;2022-07-23T06:26:41;18.80;;;7.30;;
30036;SDS011;36325;51.512;-0.382;2022-07-23T06:29:08;19.40;;;8.45;;
30036;SDS011;36325;51.512;-0.382;2022-07-23T06:31:35;20.75;;;8.07;;
30036;SDS011;36325;51.512;-0.382;2022-07-23T06:34:03;17.52;;;8.25;;
30036;SDS011;36325;51.512;-0.382;2022-07-23T06:36:30;20.90;;;7.78;;
30036;SDS011;36325;51.512;-0.382;2022-07-23T06:38:58;27.08;;;9.38;;
30036;SDS011;36325;51.512;-0.382;2022-07-23T06:41:25;30.25;;;9.57;;
30036;SDS011;36325;51.512;-0.382;2022-07-23T06:43:54;14.27;;;7.80;;
30036;SDS011;36325;51.512;-0.382;2022-07-23T06:46:21;22.23;;;10.38;;
30036;SDS011;36325;51.512;-0.382;2022-07-23T06:48:50;19.63;;;9.70;;
30036;SDS011;36325;51.512;-0.382;2022-07-23T06:51:18;19.33;;;10.65;;
30036;SDS011;36325;51.512;-0.382;2022-07-23T06:53:45;26.27;;;11.77;;
30036;SDS011;36325;51.512;-0.382;2022-07-23T06:56:12;21.50;;;10.90;;
30036;SDS011;36325;51.512;-0.382;2022-07-23T06:58:39;15.52;;;9.40;;
30036;SDS011;36325;51.512;-0.382;2022-07-23T07:01:07;22.92;;;12.57;;
30036;SDS011;36325;51.512;-0.382;2022-07-23T07:03:34;24.60;;;11.55;;
30036;SDS011;36325;51.512;-0.382;2022-07-23T07:06:02;24.38;;;12.18;;
30036;SDS011;36325;51.512;-0.382;2022-07-23T07:08:29;25.20;;;10.90;;
30036;SDS011;36325;51.512;-0.382;2022-07-23T07:10:56;25.52;;;13.25;;
30036;SDS011;36325;51.512;-0.382;2022-07-23T07:13:24;20.92;;;12.07;;
30036;SDS011;36325;51.512;-0.382;2022-07-23T07:15:51;33.70;;;13.05;;
30036;SDS011;36325;51.512;-0.382;2022-07-23T07:18:18;20.75;;;11.18;;
30036;SDS011;36325;51.512;-0.382;2022-07-23T07:20:45;26.10;;;12.25;;
30036;SDS011;36325;51.512;-0.382;2022-07-23T07:23:13;23.65;;;11.35;;
30036;SDS011;36325;51.512;-0.382;2022-07-23T07:25:43;29.35;;;11.95;;
30036;SDS011;36325;51.512;-0.382;2022-07-23T07:28:13;24.85;;;10.30;;
30036;SDS011;36325;51.512;-0.382;2022-07-23T07:30:40;27.85;;;10.63;;
30036;SDS011;36325;51.512;-0.382;2022-07-23T07:33:08;22.15;;;10.55;;
30036;SDS011;36325;51.512;-0.382;2022-07-23T07:35:35;21.00;;;11.77;;
30036;SDS011;36325;51.512;-0.382;2022-07-23T07:38:03;20.83;;;10.52;;
30036;SDS011;36325;51.512;-0.382;2022-07-23T07:40:30;21.35;;;11.10;;
30036;SDS011;36325;51.512;-0.382;2022-07-23T07:43:00;20.58;;;11.38;;
30036;SDS011;36325;51.512;-0.382;2022-07-23T07:45:28;17.60;;;10.43;;
30036;SDS011;36325;51.512;-0.382;2022-07-23T07:47:56;21.73;;;10.05;;
30036;SDS011;36325;51.512;-0.382;2022-07-23T07:50:23;24.27;;;11.02;;
30036;SDS011;36325;51.512;-0.382;2022-07-23T07:52:51;18.85;;;10.48;;
30036;SDS011;36325;51.512;-0.382;2022-07-23T07:55:18;18.63;;;9.10;;
30036;SDS011;36325;51.512;-0.382;2022-07-23T07:57:45;17.08;;;9.82;;
30036;SDS011;36325;51.512;-0.382;2022-07-23T08:00:13;15.35;;;8.85;;
30036;SDS011;36325;51.512;-0.382;2022-07-23T08:05:12;13.80;;;8.05;;
30036;SDS011;36325;51.512;-0.382;2022-07-23T08:07:40;15.95;;;7.97;;
30036;SDS011;36325;51.512;-0.382;2022-07-23T08:10:08;16.05;;;7.70;;
30036;SDS011;36325;51.512;-0.382;2022-07-23T08:12:47;11.38;;;6.55;;
30036;SDS011;36325;51.512;-0.382;2022-07-23T08:15:17;17.38;;;6.70;;
30036;SDS011;36325;51.512;-0.382;2022-07-23T08:17:46;12.35;;;5.57;;
30036;SDS011;36325;51.512;-0.382;2022-07-23T08:20:18;18.45;;;6.60;;
30036;SDS011;36325;51.512;-0.382;2022-07-23T08:22:51;18.35;;;6.78;;
30036;SDS011;36325;51.512;-0.382;2022-07-23T08:25:24;14.60;;;5.63;;
30036;SDS011;36325;51.512;-0.382;2022-07-23T08:27:56;13.13;;;5.75;;
30036;SDS011;36325;51.512;-0.382;2022-07-23T08:30:24;10.20;;;5.07;;
30036;SDS011;36325;51.512;-0.382;2022-07-23T08:33:00;12.15;;;5.20;;
30036;SDS011;36325;51.512;-0.382;2022-07-23T08:35:30;13.55;;;5.03;;
30036;SDS011;36325;51.512;-0.382;2022-07-23T08:37:59;9.45;;;4.97;;
30036;SDS011;36325;51.512;-0.382;2022-07-23T08:40:29;9.20;;;4.78;;
30036;SDS011;36325;51.512;-0.382;2022-07-23T08:42:59;9.57;;;4.82;;
30036;SDS011;36325;51.512;-0.382;2022-07-23T08:45:27;9.20;;;4.35;;
30036;SDS011;36325;51.512;-0.382;2022-07-23T08:47:55;12.02;;;4.93;;
30036;SDS011;36325;51.512;-0.382;2022-07-23T08:50:24;8.55;;;3.92;;
30036;SDS011;36325;51.512;-0.382;2022-07-23T08:52:52;9.20;;;4.22;;
30036;SDS011;36325;51.512;-0.382;2022-07-23T08:55:20;11.25;;;4.18;;
30036;SDS011;36325;51.512;-0.382;2022-07-23T08:57:49;10.48;;;3.92;;
30036;SDS011;36325;51.512;-0.382;2022-07-23T09:00:18;12.38;;;3.97;;
30036;SDS011;36325;51.512;-0.382;2022-07-23T09:02:47;9.32;;;4.28;;
30036;SDS011;36325;51.512;-0.382;2022-07-23T09:05:16;10.88;;;4.40;;
30036;SDS011;36325;51.512;-0.382;2022-07-23T09:10:36;7.50;;;3.50;;
30036;SDS011;36325;51.512;-0.382;2022-07-23T09:16:01;9.38;;;2.78;;
30036;SDS011;36325;51.512;-0.382;2022-07-23T09:18:32;7.70;;;3.38;;
30036;SDS011;36325;51.512;-0.382;2022-07-23T09:21:11;7.47;;;3.20;;
30036;SDS011;36325;51.512;-0.382;2022-07-23T09:23:49;6.15;;;2.83;;
30036;SDS011;36325;51.512;-0.382;2022-07-23T09:26:21;8.13;;;2.55;;
30036;SDS011;36325;51.512;-0.382;2022-07-23T09:28:54;7.55;;;2.20;;
30036;SDS011;36325;51.512;-0.382;2022-07-23T09:31:30;5.90;;;2.42;;
30036;SDS011;36325;51.512;-0.382;2022-07-23T09:34:19;6.35;;;2.70;;
30036;SDS011;36325;51.512;-0.382;2022-07-23T09:36:55;5.72;;;2.00;;
30036;SDS011;36325;51.512;-0.382;2022-07-23T09:39:41;5.50;;;2.65;;
30036;SDS011;36325;51.512;-0.382;2022-07-23T09:44:44;6.75;;;2.75;;
30036;SDS011;36325;51.512;-0.382;2022-07-23T09:47:12;6.32;;;3.13;;
30036;SDS011;36325;51.512;-0.382;2022-07-23T09:49:39;8.80;;;4.53;;
30036;SDS011;36325;51.512;-0.382;2022-07-23T09:52:07;6.45;;;2.75;;
30036;SDS011;36325;51.512;-0.382;2022-07-23T09:54:37;7.13;;;2.17;;
30036;SDS011;36325;51.512;-0.382;2022-07-23T09:57:07;4.47;;;2.30;;
30036;SDS011;36325;51.512;-0.382;2022-07-23T09:59:42;6.13;;;2.53;;
30036;SDS011;36325;51.512;-0.382;2022-07-23T10:02:12;5.65;;;2.30;;
30036;SDS011;36325;51.512;-0.382;2022-07-23T10:05:02;6.90;;;2.50;;
30036;SDS011;36325;51.512;-0.382;2022-07-23T10:07:51;6.10;;;2.70;;
30036;SDS011;36325;51.512;-0.382;2022-07-23T10:10:39;3.15;;;2.10;;
30036;SDS011;36325;51.512;-0.382;2022-07-23T10:13:25;3.85;;;1.58;;
30036;SDS011;36325;51.512;-0.382;2022-07-23T10:16:12;3.90;;;1.85;;
30036;SDS011;36325;51.512;-0.382;2022-07-23T10:18:39;3.83;;;1.80;;
30036;SDS011;36325;51.512;-0.382;2022-07-23T10:21:10;5.25;;;1.75;;
30036;SDS011;36325;51.512;-0.382;2022-07-23T10:23:41;12.43;;;2.45;;
30036;SDS011;36325;51.512;-0.382;2022-07-23T10:26:36;5.53;;;1.70;;
30036;SDS011;36325;51.512;-0.382;2022-07-23T10:29:13;2.45;;;1.58;;
30036;SDS011;36325;51.512;-0.382;2022-07-23T10:34:42;5.30;;;1.67;;
30036;SDS011;36325;51.512;-0.382;2022-07-23T10:37:24;4.63;;;1.65;;
30036;SDS011;36325;51.512;-0.382;2022-07-23T10:40:09;4.15;;;1.58;;
30036;SDS011;36325;51.512;-0.382;2022-07-23T10:42:37;5.15;;;1.80;;
30036;SDS011;36325;51.512;-0.382;2022-07-23T10:48:20;5.30;;;1.83;;
30036;SDS011;36325;51.512;-0.382;2022-07-23T10:51:12;3.58;;;1.67;;
30036;SDS011;36325;51.512;-0.382;2022-07-23T10:54:00;2.97;;;1.80;;
30036;SDS011;36325;51.512;-0.382;2022-07-23T10:59:30;2.88;;;2.03;;
30036;SDS011;36325;51.512;-0.382;2022-07-23T11:02:20;2.17;;;1.48;;
30036;SDS011;36325;51.512;-0.382;2022-07-23T11:04:52;3.50;;;1.87;;
30036;SDS011;36325;51.512;-0.382;2022-07-23T11:07:20;4.30;;;1.80;;
30036;SDS011;36325;51.512;-0.382;2022-07-23T11:09:47;4.72;;;1.98;;
30036;SDS011;36325;51.512;-0.382;2022-07-23T11:17:24;5.45;;;1.92;;
30036;SDS011;36325;51.512;-0.382;2022-07-23T11:22:40;3.10;;;1.92;;
30036;SDS011;36325;51.512;-0.382;2022-07-23T11:27:48;5.03;;;1.67;;
30036;SDS011;36325;51.512;-0.382;2022-07-23T11:32:53;6.30;;;1.38;;
30036;SDS011;36325;51.512;-0.382;2022-07-23T11:35:44;3.05;;;1.58;;
30036;SDS011;36325;51.512;-0.382;2022-07-23T11:40:44;2.22;;;1.42;;
30036;SDS011;36325;51.512;-0.382;2022-07-23T11:43:15;4.55;;;1.80;;
30036;SDS011;36325;51.512;-0.382;2022-07-23T11:45:44;2.95;;;1.50;;
30036;SDS011;36325;51.512;-0.382;2022-07-23T11:48:18;5.03;;;1.70;;
30036;SDS011;36325;51.512;-0.382;2022-07-23T11:50:50;4.00;;;1.60;;
30036;SDS011;36325;51.512;-0.382;2022-07-23T11:53:24;6.57;;;1.40;;
30036;SDS011;36325;51.512;-0.382;2022-07-23T11:56:02;2.58;;;1.55;;
30036;SDS011;36325;51.512;-0.382;2022-07-23T11:58:33;3.55;;;1.80;;
30036;SDS011;36325;51.512;-0.382;2022-07-23T12:01:01;4.00;;;1.80;;
30036;SDS011;36325;51.512;-0.382;2022-07-23T12:03:28;4.18;;;1.40;;
30036;SDS011;36325;51.512;-0.382;2022-07-23T12:05:56;2.83;;;1.50;;
30036;SDS011;36325;51.512;-0.382;2022-07-23T12:08:25;4.05;;;1.40;;
30036;SDS011;36325;51.512;-0.382;2022-07-23T12:10:53;4.22;;;1.27;;
30036;SDS011;36325;51.512;-0.382;2022-07-23T12:13:21;3.45;;;1.63;;
30036;SDS011;36325;51.512;-0.382;2022-07-23T12:15:50;5.38;;;1.35;;
30036;SDS011;36325;51.512;-0.382;2022-07-23T12:18:21;7.37;;;1.13;;
30036;SDS011;36325;51.512;-0.382;2022-07-23T12:20:51;2.30;;;1.20;;
30036;SDS011;36325;51.512;-0.382;2022-07-23T12:23:20;1.70;;;1.02;;
30036;SDS011;36325;51.512;-0.382;2022-07-23T12:25:48;1.95;;;0.90;;
30036;SDS011;36325;51.512;-0.382;2022-07-23T12:28:18;2.45;;;1.20;;
30036;SDS011;36325;51.512;-0.382;2022-07-23T12:30:50;6.35;;;1.30;;
30036;SDS011;36325;51.512;-0.382;2022-07-23T12:33:23;3.28;;;1.40;;
30036;SDS011;36325;51.512;-0.382;2022-07-23T12:35:53;5.25;;;1.30;;
30036;SDS011;36325;51.512;-0.382;2022-07-23T12:38:22;3.63;;;1.00;;
30036;SDS011;36325;51.512;-0.382;2022-07-23T12:43:27;1.52;;;1.05;;
30036;SDS011;36325;51.512;-0.382;2022-07-23T12:45:57;2.47;;;1.80;;
30036;SDS011;36325;51.512;-0.382;2022-07-23T12:48:38;3.85;;;1.73;;
30036;SDS011;36325;51.512;-0.382;2022-07-23T12:51:12;1.70;;;1.23;;
30036;SDS011;36325;51.512;-0.382;2022-07-23T12:53:45;3.63;;;1.38;;
30036;SDS011;36325;51.512;-0.382;2022-07-23T12:56:16;2.88;;;1.77;;
30036;SDS011;36325;51.512;-0.382;2022-07-23T12:58:49;1.55;;;1.45;;
30036;SDS011;36325;51.512;-0.382;2022-07-23T13:04:23;7.07;;;1.65;;
30036;SDS011;36325;51.512;-0.382;2022-07-23T13:06:48;4.40;;;1.42;;
30036;SDS011;36325;51.512;-0.382;2022-07-23T13:09:20;2.70;;;1.30;;
30036;SDS011;36325;51.512;-0.382;2022-07-23T13:11:49;2.78;;;1.45;;
30036;SDS011;36325;51.512;-0.382;2022-07-23T13:14:18;2.45;;;1.38;;
30036;SDS011;36325;51.512;-0.382;2022-07-23T13:16:47;6.45;;;1.80;;
30036;SDS011;36325;51.512;-0.382;2022-07-23T13:19:16;1.55;;;1.45;;
30036;SDS011;36325;51.512;-0.382;2022-07-23T13:21:44;1.27;;;1.17;;
30036;SDS011;36325;51.512;-0.382;2022-07-23T13:24:12;2.45;;;1.38;;
30036;SDS011;36325;51.512;-0.382;2022-07-23T13:26:40;2.40;;;1.40;;
30036;SDS011;36325;51.512;-0.382;2022-07-23T13:29:08;4.55;;;1.38;;
30036;SDS011;36325;51.512;-0.382;2022-07-23T13:31:36;1.92;;;1.42;;
30036;SDS011;36325;51.512;-0.382;2022-07-23T13:34:04;1.27;;;1.17;;
30036;SDS011;36325;51.512;-0.382;2022-07-23T13:36:34;1.70;;;1.27;;
30036;SDS011;36325;51.512;-0.382;2022-07-23T13:39:02;2.85;;;1.60;;
30036;SDS011;36325;51.512;-0.382;2022-07-23T13:41:30;2.75;;;1.67;;
30036;SDS011;36325;51.512;-0.382;2022-07-23T13:43:58;4.47;;;1.85;;
30036;SDS011;36325;51.512;-0.382;2022-07-23T13:46:26;3.30;;;1.48;;
30036;SDS011;36325;51.512;-0.382;2022-07-23T13:48:53;2.60;;;1.88;;
30036;SDS011;36325;51.512;-0.382;2022-07-23T13:51:20;1.77;;;1.50;;
30036;SDS011;36325;51.512;-0.382;2022-07-23T13:53:47;2.70;;;2.08;;
30036;SDS011;36325;51.512;-0.382;2022-07-23T13:56:14;2.88;;;1.80;;
30036;SDS011;36325;51.512;-0.382;2022-07-23T13:58:41;2.08;;;1.30;;
30036;SDS011;36325;51.512;-0.382;2022-07-23T14:01:09;3.28;;;1.48;;
30036;SDS011;36325;51.512;-0.382;2022-07-23T14:03:36;4.68;;;1.77;;
30036;SDS011;36325;51.512;-0.382;2022-07-23T14:06:03;2.53;;;1.73;;
30036;SDS011;36325;51.512;-0.382;2022-07-23T14:08:39;6.40;;;1.95;;
30036;SDS011;36325;51.512;-0.382;2022-07-23T14:11:06;4.28;;;1.67;;
30036;SDS011;36325;51.512;-0.382;2022-07-23T14:13:33;7.03;;;2.17;;
30036;SDS011;36325;51.512;-0.382;2022-07-23T14:16:00;2.53;;;1.88;;
30036;SDS011;36325;51.512;-0.382;2022-07-23T14:18:29;3.90;;;1.70;;
30036;SDS011;36325;51.512;-0.382;2022-07-23T14:20:59;2.72;;;1.65;;
30036;SDS011;36325;51.512;-0.382;2022-07-23T14:23:27;6.13;;;2.17;;
30036;SDS011;36325;51.512;-0.382;2022-07-23T14:25:55;3.40;;;2.22;;
30036;SDS011;36325;51.512;-0.382;2022-07-23T14:28:22;4.47;;;2.00;;
30036;SDS011;36325;51.512;-0.382;2022-07-23T14:30:49;3.97;;;1.50;;
30036;SDS011;36325;51.512;-0.382;2022-07-23T14:33:16;3.20;;;1.80;;
30036;SDS011;36325;51.512;-0.382;2022-07-23T14:35:44;2.70;;;1.92;;
30036;SDS011;36325;51.512;-0.382;2022-07-23T14:38:11;4.50;;;1.50;;
30036;SDS011;36325;51.512;-0.382;2022-07-23T14:40:39;2.58;;;1.73;;
30036;SDS011;36325;51.512;-0.382;2022-07-23T14:43:08;4.32;;;1.83;;
30036;SDS011;36325;51.512;-0.382;2022-07-23T14:45:36;3.97;;;1.70;;
30036;SDS011;36325;51.512;-0.382;2022-07-23T14:48:03;4.93;;;2.38;;
30036;SDS011;36325;51.512;-0.382;2022-07-23T14:50:31;4.57;;;2.42;;
30036;SDS011;36325;51.512;-0.382;2022-07-23T14:52:58;6.70;;;1.90;;
30036;SDS011;36325;51.512;-0.382;2022-07-23T14:55:25;3.63;;;1.83;;
30036;SDS011;36325;51.512;-0.382;2022-07-23T14:57:53;2.88;;;1.70;;
30036;SDS011;36325;51.512;-0.382;2022-07-23T15:00:20;5.10;;;2.25;;
30036;SDS011;36325;51.512;-0.382;2022-07-23T15:03:07;3.25;;;2.05;;
30036;SDS011;36325;51.512;-0.382;2022-07-23T15:05:34;6.13;;;2.45;;
30036;SDS011;36325;51.512;-0.382;2022-07-23T15:08:02;9.65;;;2.08;;
30036;SDS011;36325;51.512;-0.382;2022-07-23T15:10:29;5.68;;;2.20;;
30036;SDS011;36325;51.512;-0.382;2022-07-23T15:12:56;4.05;;;2.20;;
30036;SDS011;36325;51.512;-0.382;2022-07-23T15:15:23;4.13;;;1.90;;
30036;SDS011;36325;51.512;-0.382;2022-07-23T15:17:51;3.63;;;1.80;;
30036;SDS011;36325;51.512;-0.382;2022-07-23T15:20:18;3.67;;;1.88;;
30036;SDS011;36325;51.512;-0.382;2022-07-23T15:23:01;4.25;;;2.08;;
30036;SDS011;36325;51.512;-0.382;2022-07-23T15:25:29;2.42;;;1.90;;